sensor_id;sensor_type;location;lat;lon;timestamp;temperature;humidity
15543;DHT22;7873;52.230;12.856;2023-08-30T00:00:58;22.90;59.60
15543;DHT22;7873;52.230;12.856;2023-08-30T00:03:25;23.10;67.30
15543;DHT22;7873;52.230;12.856;2023-08-30T00:05:51;22.90;59.20
15543;DHT22;7873;52.230;12.856;2023-08-30T00:08:19;22.90;58.70
15543;DHT22;7873;52.230;12.856;2023-08-30T00:10:47;23.20;60.30
15543;DHT22;7873;52.230;12.856;2023-08-30T00:13:14;23.00;63.00
15543;DHT22;7873;52.230;12.856;2023-08-30T00:15:41;22.80;59.40
15543;DHT22;7873;52.230;12.856;2023-08-30T00:18:08;22.80;58.40
15543;DHT22;7873;52.230;12.856;2023-08-30T00:20:35;22.90;59.10
15543;DHT22;7873;52.230;12.856;2023-08-30T00:23:02;23.00;59.80
15543;DHT22;7873;52.230;12.856;2023-08-30T00:25:31;22.80;60.20
15543;DHT22;7873;52.230;12.856;2023-08-30T00:27:58;22.80;59.10
15543;DHT22;7873;52.230;12.856;2023-08-30T00:30:24;22.80;58.50
15543;DHT22;7873;52.230;12.856;2023-08-30T00:32:51;22.90;58.70
15543;DHT22;7873;52.230;12.856;2023-08-30T00:35:17;22.90;58.40
15543;DHT22;7873;52.230;12.856;2023-08-30T00:37:44;22.70;58.50
15543;DHT22;7873;52.230;12.856;2023-08-30T00:40:11;22.70;58.30
15543;DHT22;7873;52.230;12.856;2023-08-30T00:42:39;22.80;58.30
15543;DHT22;7873;52.230;12.856;2023-08-30T00:45:07;22.90;58.70
15543;DHT22;7873;52.230;12.856;2023-08-30T00:47:34;22.80;58.40
15543;DHT22;7873;52.230;12.856;2023-08-30T00:50:01;22.80;58.80
15543;DHT22;7873;52.230;12.856;2023-08-30T00:52:28;22.80;59.90
15543;DHT22;7873;52.230;12.856;2023-08-30T00:54:55;22.80;59.40
15543;DHT22;7873;52.230;12.856;2023-08-30T00:57:22;22.80;59.20
15543;DHT22;7873;52.230;12.856;2023-08-30T00:59:50;22.80;58.60
15543;DHT22;7873;52.230;12.856;2023-08-30T01:02:19;22.80;59.50
15543;DHT22;7873;52.230;12.856;2023-08-30T01:04:46;22.80;58.10
15543;DHT22;7873;52.230;12.856;2023-08-30T01:07:13;22.80;58.10
15543;DHT22;7873;52.230;12.856;2023-08-30T01:09:40;22.90;58.30
15543;DHT22;7873;52.230;12.856;2023-08-30T01:12:08;22.80;58.10
15543;DHT22;7873;52.230;12.856;2023-08-30T01:14:40;22.80;58.20
15543;DHT22;7873;52.230;12.856;2023-08-30T01:17:13;22.80;59.00
15543;DHT22;7873;52.230;12.856;2023-08-30T01:19:46;22.90;59.20
15543;DHT22;7873;52.230;12.856;2023-08-30T01:22:28;22.90;57.40
15543;DHT22;7873;52.230;12.856;2023-08-30T01:25:00;22.90;58.40
15543;DHT22;7873;52.230;12.856;2023-08-30T01:27:40;22.90;58.10
15543;DHT22;7873;52.230;12.856;2023-08-30T01:30:07;22.90;59.80
15543;DHT22;7873;52.230;12.856;2023-08-30T01:32:36;22.80;58.40
15543;DHT22;7873;52.230;12.856;2023-08-30T01:35:05;22.80;57.60
15543;DHT22;7873;52.230;12.856;2023-08-30T01:37:33;22.80;58.50
15543;DHT22;7873;52.230;12.856;2023-08-30T01:40:02;23.00;57.60
15543;DHT22;7873;52.230;12.856;2023-08-30T01:42:30;22.80;57.60
15543;DHT22;7873;52.230;12.856;2023-08-30T01:45:00;22.80;57.60
15543;DHT22;7873;52.230;12.856;2023-08-30T01:47:28;22.80;57.40
15543;DHT22;7873;52.230;12.856;2023-08-30T01:49:56;23.00;57.30
15543;DHT22;7873;52.230;12.856;2023-08-30T01:52:24;23.00;57.20
15543;DHT22;7873;52.230;12.856;2023-08-30T01:54:51;22.90;57.30
15543;DHT22;7873;52.230;12.856;2023-08-30T01:57:18;22.90;57.30
15543;DHT22;7873;52.230;12.856;2023-08-30T01:59:45;22.30;57.30
15543;DHT22;7873;52.230;12.856;2023-08-30T02:02:13;22.80;57.40
15543;DHT22;7873;52.230;12.856;2023-08-30T02:04:40;22.90;57.70
15543;DHT22;7873;52.230;12.856;2023-08-30T02:07:08;22.90;57.60
15543;DHT22;7873;52.230;12.856;2023-08-30T02:09:39;22.80;57.60
15543;DHT22;7873;52.230;12.856;2023-08-30T02:12:13;22.80;57.40
15543;DHT22;7873;52.230;12.856;2023-08-30T02:14:42;22.90;57.50
15543;DHT22;7873;52.230;12.856;2023-08-30T02:17:15;22.80;57.50
15543;DHT22;7873;52.230;12.856;2023-08-30T02:19:42;22.80;57.80
15543;DHT22;7873;52.230;12.856;2023-08-30T02:22:09;22.80;57.50
15543;DHT22;7873;52.230;12.856;2023-08-30T02:24:36;22.80;57.40
15543;DHT22;7873;52.230;12.856;2023-08-30T02:27:02;22.80;57.40
15543;DHT22;7873;52.230;12.856;2023-08-30T02:29:29;22.80;57.30
15543;DHT22;7873;52.230;12.856;2023-08-30T02:31:55;22.70;57.30
15543;DHT22;7873;52.230;12.856;2023-08-30T02:34:23;22.80;57.40
15543;DHT22;7873;52.230;12.856;2023-08-30T02:36:50;22.80;57.30
15543;DHT22;7873;52.230;12.856;2023-08-30T02:39:17;22.80;57.30
15543;DHT22;7873;52.230;12.856;2023-08-30T02:41:44;22.80;57.10
15543;DHT22;7873;52.230;12.856;2023-08-30T02:44:11;22.90;57.30
15543;DHT22;7873;52.230;12.856;2023-08-30T02:46:38;22.90;57.10
15543;DHT22;7873;52.230;12.856;2023-08-30T02:49:05;22.80;57.10
15543;DHT22;7873;52.230;12.856;2023-08-30T02:51:33;22.90;57.10
15543;DHT22;7873;52.230;12.856;2023-08-30T02:54:00;22.80;57.10
15543;DHT22;7873;52.230;12.856;2023-08-30T02:56:27;22.90;57.10
15543;DHT22;7873;52.230;12.856;2023-08-30T02:58:53;22.90;57.00
15543;DHT22;7873;52.230;12.856;2023-08-30T03:01:20;22.90;57.00
15543;DHT22;7873;52.230;12.856;2023-08-30T03:03:47;22.90;57.10
15543;DHT22;7873;52.230;12.856;2023-08-30T03:06:13;22.80;57.40
15543;DHT22;7873;52.230;12.856;2023-08-30T03:08:41;22.80;57.50
15543;DHT22;7873;52.230;12.856;2023-08-30T03:11:08;22.80;57.40
15543;DHT22;7873;52.230;12.856;2023-08-30T03:13:36;22.80;57.40
15543;DHT22;7873;52.230;12.856;2023-08-30T03:16:09;22.80;57.40
15543;DHT22;7873;52.230;12.856;2023-08-30T03:18:36;22.90;57.30
15543;DHT22;7873;52.230;12.856;2023-08-30T03:21:03;22.90;57.30
15543;DHT22;7873;52.230;12.856;2023-08-30T03:23:30;22.90;57.40
15543;DHT22;7873;52.230;12.856;2023-08-30T03:25:59;23.00;57.30
15543;DHT22;7873;52.230;12.856;2023-08-30T03:28:26;22.90;57.40
15543;DHT22;7873;52.230;12.856;2023-08-30T03:30:53;23.00;57.40
15543;DHT22;7873;52.230;12.856;2023-08-30T03:33:19;22.90;57.30
15543;DHT22;7873;52.230;12.856;2023-08-30T03:35:46;22.90;57.00
15543;DHT22;7873;52.230;12.856;2023-08-30T03:38:12;23.00;57.10
15543;DHT22;7873;52.230;12.856;2023-08-30T03:40:39;23.00;57.10
15543;DHT22;7873;52.230;12.856;2023-08-30T03:43:07;23.00;57.10
15543;DHT22;7873;52.230;12.856;2023-08-30T03:45:34;22.90;57.40
15543;DHT22;7873;52.230;12.856;2023-08-30T03:48:02;22.90;57.30
15543;DHT22;7873;52.230;12.856;2023-08-30T03:50:29;22.90;57.10
15543;DHT22;7873;52.230;12.856;2023-08-30T03:52:56;22.90;57.20
15543;DHT22;7873;52.230;12.856;2023-08-30T03:55:22;22.90;57.10
15543;DHT22;7873;52.230;12.856;2023-08-30T03:57:49;23.00;57.20
15543;DHT22;7873;52.230;12.856;2023-08-30T04:00:17;23.00;57.10
15543;DHT22;7873;52.230;12.856;2023-08-30T04:02:44;22.90;57.10
15543;DHT22;7873;52.230;12.856;2023-08-30T04:05:10;22.90;57.30
15543;DHT22;7873;52.230;12.856;2023-08-30T04:07:37;22.90;57.40
15543;DHT22;7873;52.230;12.856;2023-08-30T04:10:05;23.00;57.20
15543;DHT22;7873;52.230;12.856;2023-08-30T04:12:32;23.00;56.80
15543;DHT22;7873;52.230;12.856;2023-08-30T04:14:59;23.20;57.20
15543;DHT22;7873;52.230;12.856;2023-08-30T04:17:28;22.90;57.30
15543;DHT22;7873;52.230;12.856;2023-08-30T04:19:55;22.90;57.30
15543;DHT22;7873;52.230;12.856;2023-08-30T04:22:21;23.00;57.20
15543;DHT22;7873;52.230;12.856;2023-08-30T04:24:48;23.00;57.10
15543;DHT22;7873;52.230;12.856;2023-08-30T04:27:15;23.00;56.70
15543;DHT22;7873;52.230;12.856;2023-08-30T04:29:42;23.10;56.80
15543;DHT22;7873;52.230;12.856;2023-08-30T04:32:10;23.10;56.80
15543;DHT22;7873;52.230;12.856;2023-08-30T04:34:38;23.10;56.80
15543;DHT22;7873;52.230;12.856;2023-08-30T04:37:05;23.00;56.90
15543;DHT22;7873;52.230;12.856;2023-08-30T04:39:31;22.90;56.90
15543;DHT22;7873;52.230;12.856;2023-08-30T04:41:58;22.90;56.70
15543;DHT22;7873;52.230;12.856;2023-08-30T04:44:25;22.90;56.90
15543;DHT22;7873;52.230;12.856;2023-08-30T04:46:53;22.90;56.70
15543;DHT22;7873;52.230;12.856;2023-08-30T04:49:20;23.00;56.60
15543;DHT22;7873;52.230;12.856;2023-08-30T04:51:48;22.90;56.80
15543;DHT22;7873;52.230;12.856;2023-08-30T04:54:15;23.10;57.50
15543;DHT22;7873;52.230;12.856;2023-08-30T04:56:42;22.90;57.60
15543;DHT22;7873;52.230;12.856;2023-08-30T04:59:09;22.90;56.80
15543;DHT22;7873;52.230;12.856;2023-08-30T05:01:35;22.90;58.30
15543;DHT22;7873;52.230;12.856;2023-08-30T05:04:03;22.90;57.80
15543;DHT22;7873;52.230;12.856;2023-08-30T05:06:30;22.80;57.70
15543;DHT22;7873;52.230;12.856;2023-08-30T05:08:58;23.00;58.00
15543;DHT22;7873;52.230;12.856;2023-08-30T05:11:25;22.80;57.10
15543;DHT22;7873;52.230;12.856;2023-08-30T05:13:52;22.80;57.00
15543;DHT22;7873;52.230;12.856;2023-08-30T05:16:18;22.70;57.30
15543;DHT22;7873;52.230;12.856;2023-08-30T05:18:45;22.70;57.30
15543;DHT22;7873;52.230;12.856;2023-08-30T05:21:13;22.70;57.30
15543;DHT22;7873;52.230;12.856;2023-08-30T05:23:40;22.70;57.10
15543;DHT22;7873;52.230;12.856;2023-08-30T05:26:08;22.80;56.90
15543;DHT22;7873;52.230;12.856;2023-08-30T05:28:35;22.80;56.80
15543;DHT22;7873;52.230;12.856;2023-08-30T05:31:02;22.80;56.80
15543;DHT22;7873;52.230;12.856;2023-08-30T05:33:28;23.00;56.60
15543;DHT22;7873;52.230;12.856;2023-08-30T05:35:55;22.90;56.40
15543;DHT22;7873;52.230;12.856;2023-08-30T05:38:22;22.80;56.50
15543;DHT22;7873;52.230;12.856;2023-08-30T05:40:48;22.80;56.60
15543;DHT22;7873;52.230;12.856;2023-08-30T05:43:16;22.80;56.60
15543;DHT22;7873;52.230;12.856;2023-08-30T05:45:43;22.80;56.60
15543;DHT22;7873;52.230;12.856;2023-08-30T05:48:10;22.80;57.10
15543;DHT22;7873;52.230;12.856;2023-08-30T05:50:37;22.90;56.90
15543;DHT22;7873;52.230;12.856;2023-08-30T05:53:04;22.80;56.90
15543;DHT22;7873;52.230;12.856;2023-08-30T05:55:31;22.90;56.50
15543;DHT22;7873;52.230;12.856;2023-08-30T05:57:58;22.90;56.60
15543;DHT22;7873;52.230;12.856;2023-08-30T06:00:26;22.90;56.60
15543;DHT22;7873;52.230;12.856;2023-08-30T06:02:52;22.80;56.30
15543;DHT22;7873;52.230;12.856;2023-08-30T06:05:19;22.90;56.30
15543;DHT22;7873;52.230;12.856;2023-08-30T06:07:46;22.90;57.10
15543;DHT22;7873;52.230;12.856;2023-08-30T06:10:12;23.00;56.40
15543;DHT22;7873;52.230;12.856;2023-08-30T06:12:39;22.80;56.30
15543;DHT22;7873;52.230;12.856;2023-08-30T06:15:06;22.90;56.30
15543;DHT22;7873;52.230;12.856;2023-08-30T06:17:35;23.00;56.20
15543;DHT22;7873;52.230;12.856;2023-08-30T06:20:01;23.00;56.20
15543;DHT22;7873;52.230;12.856;2023-08-30T06:22:29;22.90;56.30
15543;DHT22;7873;52.230;12.856;2023-08-30T06:24:56;22.90;56.30
15543;DHT22;7873;52.230;12.856;2023-08-30T06:27:23;22.90;56.30
15543;DHT22;7873;52.230;12.856;2023-08-30T06:29:50;23.00;56.10
15543;DHT22;7873;52.230;12.856;2023-08-30T06:32:17;22.90;56.10
15543;DHT22;7873;52.230;12.856;2023-08-30T06:34:45;22.90;56.20
15543;DHT22;7873;52.230;12.856;2023-08-30T06:37:12;23.00;56.10
15543;DHT22;7873;52.230;12.856;2023-08-30T06:39:38;22.90;56.10
15543;DHT22;7873;52.230;12.856;2023-08-30T06:42:05;23.00;56.20
15543;DHT22;7873;52.230;12.856;2023-08-30T06:44:32;22.90;56.30
15543;DHT22;7873;52.230;12.856;2023-08-30T06:46:59;22.90;56.30
15543;DHT22;7873;52.230;12.856;2023-08-30T06:49:25;22.90;56.10
15543;DHT22;7873;52.230;12.856;2023-08-30T06:51:54;22.90;56.10
15543;DHT22;7873;52.230;12.856;2023-08-30T06:54:20;24.70;57.00
15543;DHT22;7873;52.230;12.856;2023-08-30T06:56:56;22.90;56.20
15543;DHT22;7873;52.230;12.856;2023-08-30T06:59:24;22.90;56.10
15543;DHT22;7873;52.230;12.856;2023-08-30T07:01:50;22.90;56.10
15543;DHT22;7873;52.230;12.856;2023-08-30T07:04:17;22.90;56.20
15543;DHT22;7873;52.230;12.856;2023-08-30T07:06:44;22.90;56.30
15543;DHT22;7873;52.230;12.856;2023-08-30T07:09:12;22.90;56.20
15543;DHT22;7873;52.230;12.856;2023-08-30T07:11:39;22.90;56.20
15543;DHT22;7873;52.230;12.856;2023-08-30T07:14:09;22.90;56.10
15543;DHT22;7873;52.230;12.856;2023-08-30T07:16:36;22.90;56.00
15543;DHT22;7873;52.230;12.856;2023-08-30T07:19:02;22.90;56.00
15543;DHT22;7873;52.230;12.856;2023-08-30T07:21:29;22.90;56.00
15543;DHT22;7873;52.230;12.856;2023-08-30T07:23:56;22.90;56.10
15543;DHT22;7873;52.230;12.856;2023-08-30T07:26:24;22.90;56.00
15543;DHT22;7873;52.230;12.856;2023-08-30T07:28:51;22.90;56.00
15543;DHT22;7873;52.230;12.856;2023-08-30T07:31:18;22.90;55.90
15543;DHT22;7873;52.230;12.856;2023-08-30T07:33:45;22.90;56.00
15543;DHT22;7873;52.230;12.856;2023-08-30T07:36:11;22.90;56.00
15543;DHT22;7873;52.230;12.856;2023-08-30T07:38:38;22.90;56.00
15543;DHT22;7873;52.230;12.856;2023-08-30T07:41:05;22.80;56.00
15543;DHT22;7873;52.230;12.856;2023-08-30T07:43:33;22.90;56.00
15543;DHT22;7873;52.230;12.856;2023-08-30T07:45:59;22.90;56.00
15543;DHT22;7873;52.230;12.856;2023-08-30T07:48:26;22.90;56.10
15543;DHT22;7873;52.230;12.856;2023-08-30T07:50:53;22.90;56.10
15543;DHT22;7873;52.230;12.856;2023-08-30T07:53:19;22.90;56.10
15543;DHT22;7873;52.230;12.856;2023-08-30T07:55:47;22.90;56.00
15543;DHT22;7873;52.230;12.856;2023-08-30T07:58:15;22.80;56.00
15543;DHT22;7873;52.230;12.856;2023-08-30T08:00:43;22.90;56.10
15543;DHT22;7873;52.230;12.856;2023-08-30T08:03:10;22.90;56.10
15543;DHT22;7873;52.230;12.856;2023-08-30T08:05:37;22.90;56.00
15543;DHT22;7873;52.230;12.856;2023-08-30T08:08:03;22.90;56.00
15543;DHT22;7873;52.230;12.856;2023-08-30T08:10:31;22.90;56.00
15543;DHT22;7873;52.230;12.856;2023-08-30T08:12:58;22.90;56.10
15543;DHT22;7873;52.230;12.856;2023-08-30T08:15:24;22.90;56.10
15543;DHT22;7873;52.230;12.856;2023-08-30T08:17:52;22.90;56.10
15543;DHT22;7873;52.230;12.856;2023-08-30T08:20:19;22.80;56.00
15543;DHT22;7873;52.230;12.856;2023-08-30T08:22:46;22.90;56.10
15543;DHT22;7873;52.230;12.856;2023-08-30T08:25:13;22.90;56.10
15543;DHT22;7873;52.230;12.856;2023-08-30T08:27:39;22.90;56.10
15543;DHT22;7873;52.230;12.856;2023-08-30T08:30:06;22.80;56.10
15543;DHT22;7873;52.230;12.856;2023-08-30T08:32:35;22.80;56.20
15543;DHT22;7873;52.230;12.856;2023-08-30T08:35:03;22.90;56.20
15543;DHT22;7873;52.230;12.856;2023-08-30T08:37:30;23.20;56.40
15543;DHT22;7873;52.230;12.856;2023-08-30T08:39:57;22.80;56.10
15543;DHT22;7873;52.230;12.856;2023-08-30T08:42:24;22.90;56.20
15543;DHT22;7873;52.230;12.856;2023-08-30T08:44:51;22.80;56.20
15543;DHT22;7873;52.230;12.856;2023-08-30T08:47:20;22.90;56.10
15543;DHT22;7873;52.230;12.856;2023-08-30T08:49:47;22.90;56.10
15543;DHT22;7873;52.230;12.856;2023-08-30T08:52:16;22.90;56.10
15543;DHT22;7873;52.230;12.856;2023-08-30T08:54:42;22.80;56.10
15543;DHT22;7873;52.230;12.856;2023-08-30T08:57:09;22.80;56.20
15543;DHT22;7873;52.230;12.856;2023-08-30T08:59:36;22.90;56.30
15543;DHT22;7873;52.230;12.856;2023-08-30T09:02:03;22.90;56.00
15543;DHT22;7873;52.230;12.856;2023-08-30T09:04:31;22.80;56.00
15543;DHT22;7873;52.230;12.856;2023-08-30T09:06:58;22.80;56.10
15543;DHT22;7873;52.230;12.856;2023-08-30T09:09:26;22.90;56.20
15543;DHT22;7873;52.230;12.856;2023-08-30T09:11:53;22.80;56.10
15543;DHT22;7873;52.230;12.856;2023-08-30T09:14:20;22.90;56.30
15543;DHT22;7873;52.230;12.856;2023-08-30T09:16:56;22.80;56.30
15543;DHT22;7873;52.230;12.856;2023-08-30T09:19:25;22.80;56.10
15543;DHT22;7873;52.230;12.856;2023-08-30T09:21:52;22.90;56.20
15543;DHT22;7873;52.230;12.856;2023-08-30T09:24:19;22.80;56.10
15543;DHT22;7873;52.230;12.856;2023-08-30T09:26:48;22.80;56.20
15543;DHT22;7873;52.230;12.856;2023-08-30T09:29:16;22.80;56.30
15543;DHT22;7873;52.230;12.856;2023-08-30T09:31:44;22.80;56.30
15543;DHT22;7873;52.230;12.856;2023-08-30T09:34:11;22.80;56.30
15543;DHT22;7873;52.230;12.856;2023-08-30T09:36:38;22.80;56.30
15543;DHT22;7873;52.230;12.856;2023-08-30T09:39:06;22.80;56.40
15543;DHT22;7873;52.230;12.856;2023-08-30T09:41:34;22.80;56.40
15543;DHT22;7873;52.230;12.856;2023-08-30T09:44:07;22.80;56.40
15543;DHT22;7873;52.230;12.856;2023-08-30T09:46:41;22.80;56.40
15543;DHT22;7873;52.230;12.856;2023-08-30T09:49:09;22.80;56.40
15543;DHT22;7873;52.230;12.856;2023-08-30T09:51:38;22.80;56.40
15543;DHT22;7873;52.230;12.856;2023-08-30T09:54:10;22.80;56.40
15543;DHT22;7873;52.230;12.856;2023-08-30T09:56:41;22.80;56.40
15543;DHT22;7873;52.230;12.856;2023-08-30T09:59:10;22.70;56.40
15543;DHT22;7873;52.230;12.856;2023-08-30T10:01:37;22.70;56.60
15543;DHT22;7873;52.230;12.856;2023-08-30T10:04:04;22.80;56.60
15543;DHT22;7873;52.230;12.856;2023-08-30T10:06:33;22.70;56.40
15543;DHT22;7873;52.230;12.856;2023-08-30T10:09:00;22.70;56.60
15543;DHT22;7873;52.230;12.856;2023-08-30T10:11:29;22.70;56.50
15543;DHT22;7873;52.230;12.856;2023-08-30T10:13:59;22.70;56.70
15543;DHT22;7873;52.230;12.856;2023-08-30T10:16:27;22.70;56.60
15543;DHT22;7873;52.230;12.856;2023-08-30T10:19:01;22.80;56.60
15543;DHT22;7873;52.230;12.856;2023-08-30T10:21:33;22.70;56.60
15543;DHT22;7873;52.230;12.856;2023-08-30T10:24:03;22.70;56.60
15543;DHT22;7873;52.230;12.856;2023-08-30T10:26:33;22.70;56.70
15543;DHT22;7873;52.230;12.856;2023-08-30T10:29:01;22.70;56.60
15543;DHT22;7873;52.230;12.856;2023-08-30T10:31:30;22.60;56.60
15543;DHT22;7873;52.230;12.856;2023-08-30T10:33:57;22.60;56.60
15543;DHT22;7873;52.230;12.856;2023-08-30T10:36:24;22.60;56.80
15543;DHT22;7873;52.230;12.856;2023-08-30T10:38:51;22.60;56.80
15543;DHT22;7873;52.230;12.856;2023-08-30T10:41:22;22.60;56.90
15543;DHT22;7873;52.230;12.856;2023-08-30T10:43:50;22.60;56.60
15543;DHT22;7873;52.230;12.856;2023-08-30T10:46:28;22.60;56.80
15543;DHT22;7873;52.230;12.856;2023-08-30T10:49:07;22.60;56.90
15543;DHT22;7873;52.230;12.856;2023-08-30T10:51:36;22.60;56.80
15543;DHT22;7873;52.230;12.856;2023-08-30T10:54:10;22.60;57.20
15543;DHT22;7873;52.230;12.856;2023-08-30T10:56:45;22.60;56.80
15543;DHT22;7873;52.230;12.856;2023-08-30T10:59:17;22.60;57.10
15543;DHT22;7873;52.230;12.856;2023-08-30T11:01:46;22.50;56.80
15543;DHT22;7873;52.230;12.856;2023-08-30T11:04:14;22.50;57.40
15543;DHT22;7873;52.230;12.856;2023-08-30T11:06:42;22.50;57.20
15543;DHT22;7873;52.230;12.856;2023-08-30T11:09:10;22.60;57.20
15543;DHT22;7873;52.230;12.856;2023-08-30T11:11:39;22.60;57.20
15543;DHT22;7873;52.230;12.856;2023-08-30T11:14:06;22.50;57.20
15543;DHT22;7873;52.230;12.856;2023-08-30T11:16:33;22.50;57.20
15543;DHT22;7873;52.230;12.856;2023-08-30T11:19:01;22.20;57.10
15543;DHT22;7873;52.230;12.856;2023-08-30T11:21:28;22.50;58.40
15543;DHT22;7873;52.230;12.856;2023-08-30T11:23:55;22.70;57.60
15543;DHT22;7873;52.230;12.856;2023-08-30T11:26:22;22.60;56.90
15543;DHT22;7873;52.230;12.856;2023-08-30T11:28:49;22.60;56.90
15543;DHT22;7873;52.230;12.856;2023-08-30T11:31:18;22.60;57.10
15543;DHT22;7873;52.230;12.856;2023-08-30T11:33:51;22.60;57.00
15543;DHT22;7873;52.230;12.856;2023-08-30T11:36:22;22.60;56.90
15543;DHT22;7873;52.230;12.856;2023-08-30T11:38:50;22.60;57.10
15543;DHT22;7873;52.230;12.856;2023-08-30T11:41:17;22.50;57.10
15543;DHT22;7873;52.230;12.856;2023-08-30T11:43:43;22.50;57.20
15543;DHT22;7873;52.230;12.856;2023-08-30T11:46:10;22.50;57.20
15543;DHT22;7873;52.230;12.856;2023-08-30T11:48:37;22.50;57.10
15543;DHT22;7873;52.230;12.856;2023-08-30T11:51:04;22.60;58.20
15543;DHT22;7873;52.230;12.856;2023-08-30T11:53:33;22.50;57.50
15543;DHT22;7873;52.230;12.856;2023-08-30T11:56:00;22.70;57.90
15543;DHT22;7873;52.230;12.856;2023-08-30T11:58:27;22.50;57.30
15543;DHT22;7873;52.230;12.856;2023-08-30T12:00:53;22.60;57.10
15543;DHT22;7873;52.230;12.856;2023-08-30T12:03:20;22.60;57.10
15543;DHT22;7873;52.230;12.856;2023-08-30T12:05:47;22.60;57.00
15543;DHT22;7873;52.230;12.856;2023-08-30T12:08:18;22.60;56.90
15543;DHT22;7873;52.230;12.856;2023-08-30T12:10:46;22.60;56.80
15543;DHT22;7873;52.230;12.856;2023-08-30T12:13:19;22.70;57.00
15543;DHT22;7873;52.230;12.856;2023-08-30T12:15:47;22.60;56.80
15543;DHT22;7873;52.230;12.856;2023-08-30T12:18:14;22.60;56.90
15543;DHT22;7873;52.230;12.856;2023-08-30T12:20:50;22.60;56.90
15543;DHT22;7873;52.230;12.856;2023-08-30T12:23:21;22.60;56.90
15543;DHT22;7873;52.230;12.856;2023-08-30T12:26:00;22.60;57.00
15543;DHT22;7873;52.230;12.856;2023-08-30T12:28:29;22.60;57.10
15543;DHT22;7873;52.230;12.856;2023-08-30T12:30:57;22.60;57.10
15543;DHT22;7873;52.230;12.856;2023-08-30T12:33:24;22.60;57.10
15543;DHT22;7873;52.230;12.856;2023-08-30T12:35:51;22.60;57.20
15543;DHT22;7873;52.230;12.856;2023-08-30T12:38:18;22.60;57.10
15543;DHT22;7873;52.230;12.856;2023-08-30T12:40:45;22.60;57.10
15543;DHT22;7873;52.230;12.856;2023-08-30T12:43:14;22.60;57.10
15543;DHT22;7873;52.230;12.856;2023-08-30T12:45:41;22.60;57.10
15543;DHT22;7873;52.230;12.856;2023-08-30T12:48:09;22.60;57.10
15543;DHT22;7873;52.230;12.856;2023-08-30T12:50:37;22.60;57.10
15543;DHT22;7873;52.230;12.856;2023-08-30T12:53:05;22.70;57.00
15543;DHT22;7873;52.230;12.856;2023-08-30T12:55:32;22.70;56.90
15543;DHT22;7873;52.230;12.856;2023-08-30T12:58:00;22.70;56.90
15543;DHT22;7873;52.230;12.856;2023-08-30T13:00:28;22.70;56.90
15543;DHT22;7873;52.230;12.856;2023-08-30T13:02:55;22.70;56.90
15543;DHT22;7873;52.230;12.856;2023-08-30T13:05:22;22.70;56.70
15543;DHT22;7873;52.230;12.856;2023-08-30T13:07:49;22.70;56.70
15543;DHT22;7873;52.230;12.856;2023-08-30T13:10:16;22.70;56.70
15543;DHT22;7873;52.230;12.856;2023-08-30T13:12:43;22.70;57.60
15543;DHT22;7873;52.230;12.856;2023-08-30T13:15:10;22.70;56.70
15543;DHT22;7873;52.230;12.856;2023-08-30T13:17:38;22.70;56.70
15543;DHT22;7873;52.230;12.856;2023-08-30T13:20:05;22.70;56.80
15543;DHT22;7873;52.230;12.856;2023-08-30T13:22:33;22.70;56.80
15543;DHT22;7873;52.230;12.856;2023-08-30T13:24:59;22.70;56.90
15543;DHT22;7873;52.230;12.856;2023-08-30T13:27:26;22.70;56.90
15543;DHT22;7873;52.230;12.856;2023-08-30T13:29:52;22.70;56.90
15543;DHT22;7873;52.230;12.856;2023-08-30T13:32:19;22.70;56.70
15543;DHT22;7873;52.230;12.856;2023-08-30T13:34:47;22.70;56.80
15543;DHT22;7873;52.230;12.856;2023-08-30T13:37:14;22.70;56.70
15543;DHT22;7873;52.230;12.856;2023-08-30T13:39:40;22.70;56.70
15543;DHT22;7873;52.230;12.856;2023-08-30T13:42:07;22.70;56.60
15543;DHT22;7873;52.230;12.856;2023-08-30T13:44:35;22.70;56.70
15543;DHT22;7873;52.230;12.856;2023-08-30T13:47:02;22.70;56.60
15543;DHT22;7873;52.230;12.856;2023-08-30T13:49:30;22.80;56.60
15543;DHT22;7873;52.230;12.856;2023-08-30T13:51:58;22.80;56.30
15543;DHT22;7873;52.230;12.856;2023-08-30T13:54:25;22.90;56.40
15543;DHT22;7873;52.230;12.856;2023-08-30T13:56:56;22.90;56.30
15543;DHT22;7873;52.230;12.856;2023-08-30T13:59:23;22.90;56.20
15543;DHT22;7873;52.230;12.856;2023-08-30T14:01:49;22.90;56.30
15543;DHT22;7873;52.230;12.856;2023-08-30T14:04:16;22.90;56.20
15543;DHT22;7873;52.230;12.856;2023-08-30T14:06:43;22.90;56.20
15543;DHT22;7873;52.230;12.856;2023-08-30T14:09:11;22.90;56.30
15543;DHT22;7873;52.230;12.856;2023-08-30T14:11:39;22.90;56.40
15543;DHT22;7873;52.230;12.856;2023-08-30T14:14:06;22.90;56.50
15543;DHT22;7873;52.230;12.856;2023-08-30T14:16:33;22.90;56.50
15543;DHT22;7873;52.230;12.856;2023-08-30T14:19:01;22.90;56.20
15543;DHT22;7873;52.230;12.856;2023-08-30T14:21:31;23.00;56.30
15543;DHT22;7873;52.230;12.856;2023-08-30T14:23:57;23.30;55.70
15543;DHT22;7873;52.230;12.856;2023-08-30T14:26:25;23.50;55.30
15543;DHT22;7873;52.230;12.856;2023-08-30T14:28:52;23.50;55.40
15543;DHT22;7873;52.230;12.856;2023-08-30T14:31:19;23.30;53.30
15543;DHT22;7873;52.230;12.856;2023-08-30T14:33:45;23.40;54.30
15543;DHT22;7873;52.230;12.856;2023-08-30T14:36:12;23.50;54.00
15543;DHT22;7873;52.230;12.856;2023-08-30T14:38:40;23.30;55.20
15543;DHT22;7873;52.230;12.856;2023-08-30T14:41:07;23.40;53.80
15543;DHT22;7873;52.230;12.856;2023-08-30T14:43:35;23.60;53.70
15543;DHT22;7873;52.230;12.856;2023-08-30T14:46:02;23.50;54.30
15543;DHT22;7873;52.230;12.856;2023-08-30T14:48:30;23.40;54.30
15543;DHT22;7873;52.230;12.856;2023-08-30T14:50:58;23.40;53.40
15543;DHT22;7873;52.230;12.856;2023-08-30T14:53:24;23.30;54.00
15543;DHT22;7873;52.230;12.856;2023-08-30T14:55:51;23.30;54.20
15543;DHT22;7873;52.230;12.856;2023-08-30T14:58:18;23.10;54.40
15543;DHT22;7873;52.230;12.856;2023-08-30T15:00:48;23.20;54.50
15543;DHT22;7873;52.230;12.856;2023-08-30T15:03:14;23.00;55.00
15543;DHT22;7873;52.230;12.856;2023-08-30T15:05:41;23.00;54.80
15543;DHT22;7873;52.230;12.856;2023-08-30T15:08:08;23.10;53.80
15543;DHT22;7873;52.230;12.856;2023-08-30T15:10:35;23.00;54.70
15543;DHT22;7873;52.230;12.856;2023-08-30T15:13:01;23.00;55.00
15543;DHT22;7873;52.230;12.856;2023-08-30T15:15:28;23.10;55.00
15543;DHT22;7873;52.230;12.856;2023-08-30T15:17:57;23.10;54.60
15543;DHT22;7873;52.230;12.856;2023-08-30T15:20:24;23.20;55.10
15543;DHT22;7873;52.230;12.856;2023-08-30T15:22:51;23.30;54.40
15543;DHT22;7873;52.230;12.856;2023-08-30T15:25:17;23.30;54.50
15543;DHT22;7873;52.230;12.856;2023-08-30T15:27:44;23.30;54.40
15543;DHT22;7873;52.230;12.856;2023-08-30T15:30:11;23.20;55.10
15543;DHT22;7873;52.230;12.856;2023-08-30T15:32:39;23.20;55.10